Time;durP1;ratioP1;P1;durP2;ratioP2;P2;SDS_P1;SDS_P2;PMS_P1;PMS_P2;Temp;Humidity;BMP_temperature;BMP_pressure;BME280_temperature;BME280_humidity;BME280_pressure;Samples;Min_cycle;Max_cycle;Signal;HPM_P1;HPM_P2
2021/03/20 00:00:58;;;;;;;2.67;1.20;;;-0.30;99.90;;;;;;4955152;28;20588;-68
2021/03/20 00:03:24;;;;;;;3.07;1.07;;;-0.30;99.90;;;;;;4954761;28;20205;-69
2021/03/20 00:05:53;;;;;;;2.23;1.10;;;-0.30;99.90;;;;;;4961230;28;20196;-68
2021/03/20 00:08:23;;;;;;;2.03;0.83;;;-0.30;99.90;;;;;;4942361;28;20228;-68
2021/03/20 00:10:50;;;;;;;2.53;0.80;;;-0.40;99.90;;;;;;4948602;28;20228;-68
2021/03/20 00:13:21;;;;;;;1.73;0.90;;;-0.40;99.90;;;;;;4961098;28;20248;-67
2021/03/20 00:15:48;;;;;;;1.50;0.73;;;-0.40;99.90;;;;;;4962250;28;20570;-68
2021/03/20 00:18:15;;;;;;;0.47;0.47;;;-0.50;99.90;;;;;;4953505;28;20193;-68
2021/03/20 00:20:43;;;;;;;1.23;0.60;;;-0.50;99.90;;;;;;4964752;28;20725;-68
2021/03/20 00:23:11;;;;;;;3.07;1.10;;;-0.50;99.90;;;;;;4949129;28;20196;-69
2021/03/20 00:25:38;;;;;;;7.33;1.40;;;-0.40;99.90;;;;;;4964841;28;20195;-69
2021/03/20 00:28:07;;;;;;;5.07;1.30;;;-0.40;99.90;;;;;;4955162;28;20557;-68
2021/03/20 00:30:33;;;;;;;9.13;1.37;;;-0.50;99.90;;;;;;4963133;28;20232;-69
2021/03/20 00:33:00;;;;;;;4.60;1.10;;;-0.60;99.90;;;;;;4967450;28;20196;-69
2021/03/20 00:35:26;;;;;;;1.93;0.70;;;-0.70;99.90;;;;;;4953512;29;20193;-68
2021/03/20 00:37:55;;;;;;;2.53;0.83;;;-0.80;99.90;;;;;;4952632;28;20235;-68
2021/03/20 00:40:28;;;;;;;1.70;0.63;;;-0.90;99.90;;;;;;4953445;29;20288;-68
2021/03/20 00:42:55;;;;;;;1.67;0.37;;;-0.90;99.90;;;;;;4956538;28;20323;-69
2021/03/20 00:45:24;;;;;;;0.30;0.30;;;-0.90;99.90;;;;;;4956473;28;20204;-68
2021/03/20 00:47:51;;;;;;;2.47;0.60;;;-0.80;99.90;;;;;;4965478;28;20188;-68
2021/03/20 00:50:20;;;;;;;2.30;0.53;;;-0.80;99.90;;;;;;4951268;28;20225;-69
2021/03/20 00:52:46;;;;;;;0.83;0.50;;;-0.80;99.90;;;;;;4958970;28;20228;-69
2021/03/20 00:55:13;;;;;;;4.80;1.60;;;-0.80;99.90;;;;;;4956950;28;20227;-68
2021/03/20 00:57:42;;;;;;;21.67;6.03;;;-0.80;99.90;;;;;;4948669;28;20280;-68
2021/03/20 01:00:17;;;;;;;24.37;3.73;;;-0.70;99.90;;;;;;4957790;28;20193;-68
2021/03/20 01:02:44;;;;;;;11.80;2.10;;;-0.70;99.90;;;;;;4946593;28;20656;-70
2021/03/20 01:05:12;;;;;;;4.37;0.90;;;-0.70;99.90;;;;;;4957144;28;20215;-68
2021/03/20 01:07:38;;;;;;;1.80;0.87;;;-0.80;99.90;;;;;;4958631;28;20279;-68
2021/03/20 01:10:07;;;;;;;0.90;0.60;;;-0.80;99.90;;;;;;4955698;28;20228;-68
2021/03/20 01:12:34;;;;;;;0.67;0.40;;;-0.80;99.90;;;;;;4956845;28;20201;-68
2021/03/20 01:15:01;;;;;;;2.63;0.57;;;-0.80;99.90;;;;;;4971693;28;20211;-68
2021/03/20 01:17:28;;;;;;;0.43;0.40;;;-0.80;99.90;;;;;;4957874;28;20194;-68
2021/03/20 01:19:54;;;;;;;1.10;0.33;;;-0.80;99.90;;;;;;4963411;28;20201;-68
2021/03/20 01:22:21;;;;;;;0.47;0.40;;;-0.80;99.90;;;;;;4960400;28;20251;-68
2021/03/20 01:24:47;;;;;;;1.90;0.40;;;-0.70;99.90;;;;;;4969436;28;20291;-68
2021/03/20 01:27:14;;;;;;;3.23;0.67;;;-0.70;99.90;;;;;;4966504;28;20705;-68
2021/03/20 01:29:40;;;;;;;2.73;0.70;;;-0.70;99.90;;;;;;4959640;28;20323;-68
2021/03/20 01:32:08;;;;;;;2.57;1.30;;;-0.60;99.90;;;;;;4955711;28;20201;-68
2021/03/20 01:34:34;;;;;;;4.53;1.00;;;-0.60;99.90;;;;;;4967647;28;20204;-69
2021/03/20 01:37:01;;;;;;;3.73;1.17;;;-0.60;99.90;;;;;;4953994;28;20657;-67
2021/03/20 01:39:28;;;;;;;5.13;1.00;;;-0.60;99.90;;;;;;4961017;28;20201;-68
2021/03/20 01:41:54;;;;;;;2.13;0.80;;;-0.60;99.90;;;;;;4946885;28;20204;-68
2021/03/20 01:44:25;;;;;;;3.00;0.70;;;-0.60;99.90;;;;;;4964222;28;20505;-68
2021/03/20 01:46:54;;;;;;;0.63;0.63;;;-0.50;99.90;;;;;;4953200;28;20197;-68
2021/03/20 01:49:27;;;;;;;0.70;0.60;;;-0.50;99.90;;;;;;4960228;28;20324;-70
2021/03/20 01:52:01;;;;;;;2.60;0.73;;;-0.40;99.90;;;;;;4952948;28;20256;-68
2021/03/20 01:54:35;;;;;;;2.00;0.67;;;-0.40;99.90;;;;;;4952183;28;20210;-69
2021/03/20 01:57:03;;;;;;;1.83;0.63;;;-0.30;99.90;;;;;;4957304;28;20189;-69
2021/03/20 01:59:30;;;;;;;1.60;0.57;;;-0.20;99.90;;;;;;4955112;28;20215;-68
2021/03/20 02:01:57;;;;;;;4.57;0.80;;;-0.10;99.90;;;;;;4952222;28;20302;-68
2021/03/20 02:04:24;;;;;;;3.60;1.00;;;-0.20;99.90;;;;;;4952818;28;20272;-68
2021/03/20 02:06:51;;;;;;;1.43;0.70;;;-0.10;99.90;;;;;;4952025;29;20197;-69
2021/03/20 02:09:18;;;;;;;2.60;1.57;;;-0.10;99.90;;;;;;4953376;28;20231;-68
2021/03/20 02:11:51;;;;;;;3.30;0.70;;;-0.10;99.90;;;;;;4950935;28;20193;-67
2021/03/20 02:14:30;;;;;;;0.70;0.63;;;-0.10;99.90;;;;;;4966521;28;20768;-67
2021/03/20 02:17:02;;;;;;;7.73;2.77;;;0.00;99.90;;;;;;4969714;28;20196;-68
2021/03/20 02:19:57;;;;;;;8.30;2.27;;;0.00;99.90;;;;;;4957429;28;20200;-69
2021/03/20 02:22:31;;;;;;;12.63;3.00;;;0.00;99.90;;;;;;4967898;28;20907;-69
2021/03/20 02:25:40;;;;;;;16.30;2.50;;;0.10;99.90;;;;;;4969407;28;20386;-68
2021/03/20 02:28:31;;;;;;;4.07;1.17;;;0.10;99.90;;;;;;4949336;28;20592;-68
2021/03/20 02:31:29;;;;;;;2.40;0.93;;;0.20;99.90;;;;;;4957976;28;20208;-67
2021/03/20 02:34:05;;;;;;;1.90;0.43;;;0.30;99.90;;;;;;4951292;28;20209;-68
2021/03/20 02:36:40;;;;;;;0.67;0.43;;;0.30;99.90;;;;;;4962640;28;20200;-68
2021/03/20 02:39:17;;;;;;;1.23;0.80;;;0.30;99.90;;;;;;4966612;28;20201;-68
2021/03/20 02:41:49;;;;;;;4.30;0.80;;;0.40;99.90;;;;;;4970354;28;20200;-68
2021/03/20 02:44:21;;;;;;;0.77;0.43;;;0.40;99.90;;;;;;4962791;28;20670;-67
2021/03/20 02:46:52;;;;;;;1.00;0.60;;;0.40;99.90;;;;;;4963449;28;20616;-68
2021/03/20 02:49:26;;;;;;;1.63;0.63;;;0.40;99.90;;;;;;4956699;28;20213;-68
2021/03/20 02:51:58;;;;;;;1.00;0.70;;;0.30;99.90;;;;;;4953660;29;20209;-68
2021/03/20 02:54:29;;;;;;;1.20;0.70;;;0.40;99.90;;;;;;4953578;28;20208;-68
2021/03/20 02:57:02;;;;;;;0.90;0.50;;;0.40;99.90;;;;;;4959400;28;20201;-67
2021/03/20 02:59:33;;;;;;;1.10;0.57;;;0.40;99.90;;;;;;4955327;28;20203;-67
2021/03/20 03:02:04;;;;;;;0.60;0.50;;;0.40;99.90;;;;;;4950567;28;20665;-69
2021/03/20 03:04:40;;;;;;;5.23;0.43;;;0.40;99.90;;;;;;4962646;28;20207;-69
2021/03/20 03:07:12;;;;;;;2.47;0.70;;;0.40;99.90;;;;;;4961309;28;20201;-68
2021/03/20 03:09:42;;;;;;;0.63;0.63;;;0.50;99.90;;;;;;4960397;28;20225;-68
2021/03/20 03:12:13;;;;;;;1.70;0.60;;;0.40;99.90;;;;;;4952048;28;20193;-68
2021/03/20 03:14:46;;;;;;;0.87;0.50;;;0.40;99.90;;;;;;4971881;28;20582;-67
2021/03/20 03:17:15;;;;;;;0.47;0.47;;;0.30;99.90;;;;;;4969759;28;20228;-67
2021/03/20 03:19:47;;;;;;;1.07;0.70;;;0.40;99.90;;;;;;4970154;28;20669;-67
2021/03/20 03:22:23;;;;;;;0.63;0.50;;;0.30;99.90;;;;;;4971060;28;20203;-67
2021/03/20 03:25:27;;;;;;;1.53;0.50;;;0.30;99.90;;;;;;4953645;28;20242;-67
2021/03/20 03:27:57;;;;;;;0.90;0.70;;;0.30;99.90;;;;;;4960752;28;20342;-70
2021/03/20 03:30:25;;;;;;;1.00;0.70;;;0.20;99.90;;;;;;4969128;28;20239;-69
2021/03/20 03:32:57;;;;;;;1.13;0.67;;;0.20;99.90;;;;;;4970201;28;20219;-68
2021/03/20 03:35:30;;;;;;;0.87;0.80;;;0.20;99.90;;;;;;4966735;28;20674;-68
2021/03/20 03:38:02;;;;;;;2.17;1.20;;;0.20;99.90;;;;;;4944012;29;20618;-68
2021/03/20 03:40:35;;;;;;;1.00;0.70;;;0.10;99.90;;;;;;4947817;28;20314;-69
2021/03/20 03:43:02;;;;;;;1.17;0.80;;;0.10;99.90;;;;;;4955198;28;20688;-68
2021/03/20 03:45:29;;;;;;;2.43;1.00;;;0.10;99.90;;;;;;4957421;28;20603;-68
2021/03/20 03:47:58;;;;;;;2.00;0.90;;;0.00;99.90;;;;;;4951548;28;20277;-69
2021/03/20 03:50:28;;;;;;;0.67;0.67;;;0.00;99.90;;;;;;4958356;28;20201;-67
2021/03/20 03:52:55;;;;;;;1.43;0.70;;;0.00;99.90;;;;;;4952684;28;20609;-68
2021/03/20 03:55:21;;;;;;;1.77;0.70;;;0.10;99.90;;;;;;4954788;28;20201;-68
2021/03/20 03:58:11;;;;;;;1.50;0.87;;;0.00;99.90;;;;;;4961973;28;20203;-68
2021/03/20 04:00:43;;;;;;;0.63;0.63;;;0.00;99.90;;;;;;4962394;28;20480;-69
2021/03/20 04:03:48;;;;;;;0.80;0.70;;;-0.10;99.90;;;;;;4957537;28;20217;-69
2021/03/20 04:06:46;;;;;;;0.70;0.60;;;-0.10;99.90;;;;;;4954092;28;20207;-68
2021/03/20 04:09:24;;;;;;;0.70;0.70;;;-0.10;99.90;;;;;;4946656;28;20319;-68
2021/03/20 04:11:59;;;;;;;1.17;0.90;;;-0.10;99.90;;;;;;4941406;28;20256;-68
2021/03/20 04:14:35;;;;;;;1.37;0.63;;;-0.10;99.90;;;;;;4950985;29;20197;-68
2021/03/20 04:17:07;;;;;;;0.80;0.73;;;-0.10;99.90;;;;;;4955729;28;20275;-67
2021/03/20 04:19:42;;;;;;;0.90;0.70;;;-0.20;99.90;;;;;;4949830;28;20228;-68
2021/03/20 04:22:17;;;;;;;0.80;0.63;;;-0.20;99.90;;;;;;4967561;28;20649;-67
2021/03/20 04:24:48;;;;;;;2.93;0.73;;;-0.20;99.90;;;;;;4964619;28;20231;-68
2021/03/20 04:27:18;;;;;;;0.60;0.60;;;-0.20;99.90;;;;;;4956963;28;20284;-68
2021/03/20 04:29:50;;;;;;;0.93;0.70;;;-0.20;99.90;;;;;;4957725;28;20593;-69
2021/03/20 04:32:23;;;;;;;1.13;0.87;;;-0.20;99.90;;;;;;4959614;28;20202;-67
2021/03/20 04:34:56;;;;;;;1.00;0.50;;;-0.10;99.90;;;;;;4959636;28;20203;-68
2021/03/20 04:37:27;;;;;;;1.17;0.90;;;-0.20;99.90;;;;;;4960229;28;20213;-68
2021/03/20 04:39:57;;;;;;;0.60;0.50;;;-0.10;99.90;;;;;;4958116;28;20247;-67
2021/03/20 04:42:28;;;;;;;0.60;0.60;;;-0.10;99.90;;;;;;4949252;28;20217;-68
2021/03/20 04:44:55;;;;;;;0.50;0.50;;;0.00;99.90;;;;;;4958290;28;20271;-68
2021/03/20 04:47:25;;;;;;;1.53;0.53;;;0.00;99.90;;;;;;4952961;29;20674;-69
2021/03/20 04:49:55;;;;;;;0.67;0.67;;;0.00;99.90;;;;;;4952330;28;20220;-68
2021/03/20 04:52:27;;;;;;;0.40;0.40;;;0.10;99.90;;;;;;4950726;28;20581;-68
2021/03/20 04:54:53;;;;;;;0.50;0.50;;;0.10;99.90;;;;;;4947966;29;20211;-68
2021/03/20 04:57:27;;;;;;;0.50;0.50;;;0.10;99.90;;;;;;4955245;28;20312;-68
2021/03/20 04:59:59;;;;;;;0.50;0.40;;;0.20;99.90;;;;;;4951229;28;20198;-68
2021/03/20 05:02:32;;;;;;;0.30;0.30;;;0.20;99.90;;;;;;4945757;28;20224;-68
2021/03/20 05:05:02;;;;;;;0.67;0.50;;;0.20;99.90;;;;;;4941272;28;20277;-68
2021/03/20 05:07:32;;;;;;;0.40;0.40;;;0.20;99.90;;;;;;4947859;28;20193;-68
2021/03/20 05:10:00;;;;;;;0.57;0.50;;;0.30;99.90;;;;;;4936114;29;20248;-68
2021/03/20 05:12:30;;;;;;;1.33;0.40;;;0.20;99.90;;;;;;4949923;28;20264;-67
2021/03/20 05:15:01;;;;;;;1.07;0.50;;;0.20;99.90;;;;;;4971391;28;20196;-68
2021/03/20 05:17:28;;;;;;;1.43;0.43;;;0.30;99.90;;;;;;4957609;28;20292;-67
2021/03/20 05:19:54;;;;;;;0.73;0.67;;;0.40;99.90;;;;;;4969728;28;20211;-68
2021/03/20 05:22:24;;;;;;;0.60;0.60;;;0.40;99.90;;;;;;4965687;28;20227;-68
2021/03/20 05:24:53;;;;;;;0.93;0.60;;;0.40;99.90;;;;;;4965374;28;20202;-68
2021/03/20 05:27:23;;;;;;;0.40;0.40;;;0.50;99.90;;;;;;4963659;28;20235;-69
2021/03/20 05:29:51;;;;;;;1.67;0.80;;;0.50;99.90;;;;;;4964422;28;20236;-69
2021/03/20 05:32:24;;;;;;;2.57;1.67;;;0.60;99.90;;;;;;4963345;28;20612;-68
2021/03/20 05:34:51;;;;;;;4.50;2.20;;;0.60;99.90;;;;;;4964958;28;20212;-68
2021/03/20 05:37:20;;;;;;;4.50;1.70;;;0.50;99.90;;;;;;4963693;28;20307;-69
2021/03/20 05:39:47;;;;;;;4.10;1.90;;;0.50;99.90;;;;;;4955483;28;20205;-69
2021/03/20 05:42:26;;;;;;;3.20;2.00;;;0.50;99.90;;;;;;4956335;28;20201;-69
2021/03/20 05:45:02;;;;;;;3.70;1.80;;;0.60;99.90;;;;;;4958382;28;20280;-67
2021/03/20 05:47:37;;;;;;;3.37;1.40;;;0.60;99.90;;;;;;4955877;28;20208;-69
2021/03/20 05:50:15;;;;;;;2.80;1.57;;;0.80;99.90;;;;;;4961960;28;20213;-69
2021/03/20 05:53:02;;;;;;;2.03;1.30;;;0.80;99.90;;;;;;4965497;28;20275;-69
2021/03/20 05:55:34;;;;;;;2.20;1.43;;;0.90;99.90;;;;;;4959960;28;20205;-68
2021/03/20 05:58:21;;;;;;;2.23;1.40;;;1.00;99.90;;;;;;4962165;28;20228;-69
2021/03/20 06:00:54;;;;;;;1.40;1.13;;;1.20;99.90;;;;;;4950878;28;20332;-68
2021/03/20 06:03:33;;;;;;;1.37;0.90;;;1.30;99.90;;;;;;4950873;29;20377;-68
2021/03/20 06:06:04;;;;;;;1.57;1.20;;;1.50;99.90;;;;;;4952147;28;20299;-68
2021/03/20 06:08:53;;;;;;;1.10;0.80;;;1.70;99.90;;;;;;4954596;28;20577;-68
2021/03/20 06:11:36;;;;;;;0.83;0.80;;;1.80;99.90;;;;;;4953177;28;20193;-69
2021/03/20 06:14:16;;;;;;;1.10;1.00;;;1.90;99.90;;;;;;4958805;28;20561;-69
2021/03/20 06:16:51;;;;;;;1.03;0.73;;;1.90;99.90;;;;;;4967067;28;20192;-69
2021/03/20 06:19:55;;;;;;;0.80;0.80;;;2.00;99.90;;;;;;4955570;28;20207;-69
2021/03/20 06:23:03;;;;;;;1.10;0.80;;;2.00;99.90;;;;;;4966234;28;20631;-68
2021/03/20 06:25:58;;;;;;;3.00;0.80;;;2.10;99.90;;;;;;4967500;28;20197;-68
2021/03/20 06:28:30;;;;;;;0.87;0.70;;;2.20;99.90;;;;;;4962711;28;20292;-69
2021/03/20 06:31:03;;;;;;;0.60;0.60;;;2.20;99.90;;;;;;4968349;28;20232;-68
2021/03/20 06:33:34;;;;;;;0.93;0.90;;;2.30;99.90;;;;;;4967569;28;20251;-69
2021/03/20 06:36:05;;;;;;;2.03;1.07;;;2.30;99.90;;;;;;4968410;28;20657;-68
2021/03/20 06:38:38;;;;;;;0.73;0.67;;;2.30;99.90;;;;;;4966553;28;20194;-69
2021/03/20 06:41:20;;;;;;;1.23;0.70;;;2.40;99.90;;;;;;4962974;28;20256;-68
2021/03/20 06:43:51;;;;;;;1.80;0.87;;;2.40;99.90;;;;;;4958340;28;20209;-69
2021/03/20 06:46:28;;;;;;;0.87;0.87;;;2.50;99.90;;;;;;4949617;29;20272;-68
2021/03/20 06:48:55;;;;;;;3.60;1.73;;;2.50;99.90;;;;;;4957096;28;20615;-68
2021/03/20 06:51:22;;;;;;;2.23;1.70;;;2.60;99.90;;;;;;4961896;28;20201;-69
2021/03/20 06:53:55;;;;;;;4.67;2.00;;;2.70;99.90;;;;;;4960491;28;20649;-69
2021/03/20 06:56:22;;;;;;;5.03;2.27;;;3.10;99.90;;;;;;4962423;28;20569;-68
2021/03/20 06:58:48;;;;;;;4.53;1.57;;;3.50;99.90;;;;;;4955657;28;20197;-68
2021/03/20 07:01:41;;;;;;;5.73;2.43;;;3.90;99.90;;;;;;4963144;28;20288;-69
2021/03/20 07:04:29;;;;;;;3.87;1.87;;;4.10;99.90;;;;;;4962948;28;20197;-68
2021/03/20 07:07:15;;;;;;;4.33;1.53;;;4.30;99.90;;;;;;4952796;29;20235;-68
2021/03/20 07:09:43;;;;;;;2.83;1.63;;;4.30;99.90;;;;;;4943783;28;20229;-67
2021/03/20 07:12:12;;;;;;;1.90;1.10;;;4.40;99.90;;;;;;4943034;29;20293;-68
2021/03/20 07:14:44;;;;;;;1.33;1.10;;;4.40;99.90;;;;;;4971963;28;20266;-69
2021/03/20 07:17:26;;;;;;;1.27;1.17;;;4.30;99.90;;;;;;4973245;28;20259;-69
2021/03/20 07:19:54;;;;;;;1.80;1.20;;;4.30;99.90;;;;;;4961264;28;20325;-69
2021/03/20 07:22:35;;;;;;;1.73;1.33;;;4.20;99.90;;;;;;4955546;28;20701;-69
2021/03/20 07:25:20;;;;;;;3.33;1.33;;;4.10;99.90;;;;;;4958876;28;20699;-70
2021/03/20 07:27:46;;;;;;;1.17;1.07;;;4.00;99.90;;;;;;4952197;28;20664;-69
2021/03/20 07:30:32;;;;;;;2.97;1.20;;;4.10;99.90;;;;;;4966735;28;20225;-68
2021/03/20 07:33:00;;;;;;;1.10;1.00;;;4.00;99.90;;;;;;4944771;29;20255;-68
2021/03/20 07:35:35;;;;;;;1.10;1.00;;;4.20;99.90;;;;;;4953568;28;20237;-69
2021/03/20 07:38:23;;;;;;;1.40;1.13;;;4.90;99.90;;;;;;4966369;28;20203;-68
2021/03/20 07:40:50;;;;;;;1.40;1.30;;;4.50;99.90;;;;;;4951914;28;20205;-69
2021/03/20 07:43:20;;;;;;;3.33;1.30;;;4.80;99.90;;;;;;4963557;28;20210;-69
2021/03/20 07:45:48;;;;;;;1.50;1.40;;;5.10;99.90;;;;;;4967408;28;20267;-68
2021/03/20 07:48:23;;;;;;;1.10;1.00;;;5.40;99.90;;;;;;4957354;28;20464;-67
2021/03/20 07:51:00;;;;;;;1.67;1.57;;;5.80;99.90;;;;;;4954416;29;20204;-68
2021/03/20 07:53:28;;;;;;;1.63;1.20;;;6.10;99.90;;;;;;4960008;28;20212;-69
2021/03/20 07:56:16;;;;;;;1.33;0.90;;;6.50;99.90;;;;;;4966162;28;20469;-69
2021/03/20 07:58:45;;;;;;;2.13;1.50;;;6.90;99.90;;;;;;4952483;28;20598;-68
2021/03/20 08:01:15;;;;;;;2.10;1.40;;;7.30;99.90;;;;;;4957252;28;20197;-68
2021/03/20 08:03:55;;;;;;;1.13;1.00;;;7.50;99.90;;;;;;4959543;28;20192;-68
2021/03/20 08:06:25;;;;;;;1.57;1.00;;;7.50;99.40;;;;;;4957812;28;20311;-67
2021/03/20 08:09:10;;;;;;;3.00;1.20;;;7.50;99.00;;;;;;4960890;28;20212;-68
2021/03/20 08:11:37;;;;;;;1.50;0.83;;;7.70;98.70;;;;;;4949361;28;20252;-68
2021/03/20 08:14:10;;;;;;;1.43;1.13;;;8.00;97.90;;;;;;4959045;28;20655;-69
2021/03/20 08:16:36;;;;;;;1.20;1.10;;;9.10;96.40;;;;;;4972555;28;20671;-68
2021/03/20 08:19:04;;;;;;;1.30;0.90;;;10.70;93.20;;;;;;4955165;28;20278;-68
2021/03/20 08:22:02;;;;;;;1.37;0.77;;;11.50;90.00;;;;;;4955102;28;20203;-68
2021/03/20 08:24:47;;;;;;;1.60;1.13;;;11.50;84.90;;;;;;4966713;28;20574;-68
2021/03/20 08:27:23;;;;;;;1.20;1.10;;;12.00;80.80;;;;;;4963839;28;21437;-68
2021/03/20 08:30:17;;;;;;;1.00;0.90;;;12.80;74.50;;;;;;4961338;28;20311;-67
2021/03/20 08:33:10;;;;;;;0.90;0.90;;;13.60;72.20;;;;;;4966363;28;20207;-68
2021/03/20 08:35:48;;;;;;;2.10;1.00;;;15.30;68.30;;;;;;4964632;28;20306;-68
2021/03/20 08:38:34;;;;;;;2.13;1.00;;;16.80;63.60;;;;;;4968247;28;20282;-68
2021/03/20 08:41:07;;;;;;;1.43;1.20;;;18.20;59.50;;;;;;4962820;28;20197;-68
2021/03/20 08:43:58;;;;;;;2.50;1.23;;;19.60;56.10;;;;;;4960484;28;20216;-68
2021/03/20 08:46:52;;;;;;;2.20;1.40;;;20.80;53.30;;;;;;4893680;29;20216;-68
2021/03/20 08:49:31;;;;;;;2.20;1.97;;;21.90;50.50;;;;;;4898659;29;20595;-69
2021/03/20 08:52:05;;;;;;;2.97;2.20;;;22.80;48.30;;;;;;4892478;29;20301;-69
2021/03/20 08:54:49;;;;;;;2.00;1.80;;;23.50;46.00;;;;;;4896179;29;20208;-69
2021/03/20 08:57:27;;;;;;;2.60;1.97;;;23.80;44.20;;;;;;4900401;29;20234;-69
2021/03/20 08:59:55;;;;;;;2.17;1.73;;;24.30;43.30;;;;;;4894176;29;20540;-69
2021/03/20 09:02:37;;;;;;;2.28;1.50;;;24.60;42.70;;;;;;4896379;29;20692;-69
2021/03/20 09:05:15;;;;;;;1.67;1.50;;;23.30;42.40;;;;;;4885737;29;20309;-69
2021/03/20 09:07:48;;;;;;;1.83;1.20;;;21.90;41.90;;;;;;4889664;29;20650;-69
2021/03/20 09:10:19;;;;;;;1.73;1.10;;;20.50;42.50;;;;;;4880520;29;20256;-69
2021/03/20 09:12:50;;;;;;;1.13;1.13;;;19.40;42.70;;;;;;4896692;29;20208;-70
2021/03/20 09:15:23;;;;;;;1.47;1.00;;;18.60;43.00;;;;;;4894449;29;20589;-71
2021/03/20 09:17:51;;;;;;;1.13;1.03;;;17.90;42.90;;;;;;4904583;29;20438;-69
2021/03/20 09:20:38;;;;;;;1.00;0.90;;;17.20;43.00;;;;;;4905993;29;20209;-69
2021/03/20 09:23:14;;;;;;;1.10;1.00;;;17.10;43.20;;;;;;4926667;28;20288;-70
2021/03/20 09:25:42;;;;;;;1.53;1.10;;;17.50;42.80;;;;;;4965962;28;20321;-71
2021/03/20 09:28:14;;;;;;;1.30;1.20;;;17.30;39.70;;;;;;4956520;28;20211;-69
2021/03/20 09:30:42;;;;;;;1.33;1.10;;;16.40;39.00;;;;;;4950645;28;20310;-70
2021/03/20 09:33:28;;;;;;;1.00;0.90;;;15.60;40.50;;;;;;4947445;28;20287;-69
2021/03/20 09:35:58;;;;;;;1.23;0.70;;;16.50;40.30;;;;;;4949617;28;20212;-71
2021/03/20 09:38:46;;;;;;;1.00;1.00;;;18.50;40.00;;;;;;4960585;28;20196;-70
2021/03/20 09:41:34;;;;;;;2.17;1.00;;;19.30;38.50;;;;;;4941360;28;20190;-72
2021/03/20 09:44:25;;;;;;;1.17;1.00;;;18.40;37.40;;;;;;4949478;28;20292;-70
2021/03/20 09:46:54;;;;;;;1.10;1.00;;;18.00;38.10;;;;;;4951918;28;20578;-70
2021/03/20 09:49:50;;;;;;;1.30;1.20;;;18.80;37.30;;;;;;4947908;29;20316;-72
2021/03/20 09:52:51;;;;;;;1.40;1.30;;;18.20;36.80;;;;;;4945637;28;20219;-72
2021/03/20 09:55:40;;;;;;;2.73;1.00;;;17.10;37.00;;;;;;4943156;28;20220;-72
2021/03/20 09:58:28;;;;;;;1.00;0.93;;;16.20;38.00;;;;;;4945086;28;21042;-71
2021/03/20 10:01:22;;;;;;;1.13;1.03;;;15.40;38.60;;;;;;4953621;28;20273;-72
2021/03/20 10:04:22;;;;;;;3.27;1.40;;;14.70;39.50;;;;;;4944592;28;20278;-72
2021/03/20 10:07:16;;;;;;;2.30;1.73;;;14.00;40.10;;;;;;4943707;28;20241;-71
2021/03/20 10:09:55;;;;;;;1.63;1.30;;;13.90;40.30;;;;;;4940179;28;20216;-71
2021/03/20 10:12:24;;;;;;;1.50;1.40;;;15.90;40.20;;;;;;4946409;29;20612;-72
2021/03/20 10:15:05;;;;;;;1.60;1.03;;;18.20;38.90;;;;;;4949428;29;20204;-71
2021/03/20 10:17:53;;;;;;;1.50;1.40;;;20.10;37.70;;;;;;4952321;28;20200;-72
2021/03/20 10:20:22;;;;;;;2.80;1.00;;;21.90;36.80;;;;;;4942200;28;20228;-72
2021/03/20 10:22:52;;;;;;;1.40;1.30;;;23.50;35.60;;;;;;4950718;28;20197;-72
2021/03/20 10:25:20;;;;;;;1.27;1.17;;;24.30;34.60;;;;;;4951370;28;20213;-72
2021/03/20 10:27:52;;;;;;;1.63;1.20;;;23.80;33.50;;;;;;4949389;28;20236;-73
2021/03/20 10:30:23;;;;;;;1.67;1.50;;;22.30;33.50;;;;;;4952509;28;20254;-72
2021/03/20 10:32:58;;;;;;;1.83;1.30;;;21.30;34.20;;;;;;4951641;29;20208;-71
2021/03/20 10:35:25;;;;;;;1.60;1.15;;;21.50;35.30;;;;;;4952456;28;20224;-70
2021/03/20 10:37:51;;;;;;;1.20;1.10;;;22.30;34.50;;;;;;4961345;28;20200;-71
2021/03/20 10:40:23;;;;;;;1.70;1.08;;;22.20;34.20;;;;;;4960120;28;20291;-72
2021/03/20 10:42:55;;;;;;;1.27;1.17;;;22.20;34.20;;;;;;4963822;28;20235;-72
2021/03/20 10:45:30;;;;;;;1.70;1.60;;;21.50;34.20;;;;;;4968964;28;20547;-71
2021/03/20 10:48:02;;;;;;;1.52;1.20;;;20.50;34.70;;;;;;4932449;28;20200;-72
2021/03/20 10:50:33;;;;;;;2.55;1.50;;;19.90;34.90;;;;;;4944773;28;20621;-71
2021/03/20 10:53:03;;;;;;;2.28;1.55;;;20.90;34.90;;;;;;4945913;28;20192;-71
2021/03/20 10:55:37;;;;;;;1.73;1.50;;;22.30;34.20;;;;;;4942461;28;20614;-71
2021/03/20 10:58:07;;;;;;;1.55;1.33;;;23.50;33.50;;;;;;4938126;28;20217;-71
2021/03/20 11:00:42;;;;;;;1.42;1.25;;;24.30;33.00;;;;;;4943491;28;20220;-72
2021/03/20 11:03:18;;;;;;;2.30;2.10;;;24.40;31.90;;;;;;4954048;28;20287;-72
2021/03/20 11:05:46;;;;;;;3.63;1.70;;;24.80;31.70;;;;;;4945067;28;20197;-71
2021/03/20 11:08:24;;;;;;;1.77;1.67;;;25.00;31.00;;;;;;4950927;28;20654;-72
2021/03/20 11:10:52;;;;;;;1.67;1.58;;;24.10;31.00;;;;;;4950447;28;20771;-71
2021/03/20 11:13:33;;;;;;;1.02;1.00;;;22.70;31.20;;;;;;4940502;28;20197;-71
2021/03/20 11:16:09;;;;;;;1.73;1.30;;;21.20;32.00;;;;;;4946782;28;20198;-71
2021/03/20 11:18:41;;;;;;;1.58;1.40;;;20.10;32.50;;;;;;4955414;28;20254;-71
2021/03/20 11:21:23;;;;;;;2.42;1.45;;;20.40;32.80;;;;;;4951602;28;20247;-71
2021/03/20 11:23:58;;;;;;;2.38;1.30;;;20.90;32.50;;;;;;4956924;28;20558;-71
2021/03/20 11:26:31;;;;;;;1.30;1.20;;;20.60;32.10;;;;;;4952130;28;20203;-72
2021/03/20 11:29:00;;;;;;;1.98;1.65;;;19.90;32.20;;;;;;4955105;28;20233;-71
2021/03/20 11:31:28;;;;;;;3.37;1.40;;;18.90;32.40;;;;;;4960919;28;20205;-71
2021/03/20 11:33:56;;;;;;;2.03;1.60;;;18.00;32.90;;;;;;4954904;28;20235;-71
2021/03/20 11:36:25;;;;;;;1.47;1.33;;;18.10;33.40;;;;;;4950611;28;20281;-71
2021/03/20 11:38:52;;;;;;;1.63;1.47;;;17.80;33.20;;;;;;4952709;28;20598;-71
2021/03/20 11:41:24;;;;;;;3.30;1.47;;;17.20;33.30;;;;;;4954227;28;20296;-72
2021/03/20 11:43:58;;;;;;;1.33;1.13;;;16.50;33.60;;;;;;4972979;28;20279;-71
2021/03/20 11:46:27;;;;;;;1.93;1.40;;;15.80;34.00;;;;;;4959608;28;20188;-71
2021/03/20 11:48:58;;;;;;;1.97;1.57;;;15.30;34.50;;;;;;4971804;28;20200;-71
2021/03/20 11:51:27;;;;;;;3.37;2.20;;;14.90;34.80;;;;;;4956729;28;20753;-71
2021/03/20 11:53:58;;;;;;;2.40;1.80;;;15.20;35.10;;;;;;4962278;28;20196;-71
2021/03/20 11:56:28;;;;;;;2.20;1.93;;;16.10;35.10;;;;;;4959166;28;20204;-70
2021/03/20 11:58:57;;;;;;;1.97;1.70;;;16.90;34.80;;;;;;4969183;28;20255;-71
2021/03/20 12:01:47;;;;;;;2.20;1.60;;;17.30;34.20;;;;;;4968972;28;20201;-72
2021/03/20 12:04:22;;;;;;;2.07;1.30;;;17.20;33.80;;;;;;4969504;28;20208;-71
2021/03/20 12:06:49;;;;;;;1.60;1.50;;;16.70;34.00;;;;;;4960752;28;20196;-71
2021/03/20 12:09:33;;;;;;;1.10;1.00;;;16.30;34.40;;;;;;4966753;28;20213;-71
2021/03/20 12:12:00;;;;;;;4.00;1.43;;;15.80;34.80;;;;;;4956186;28;20543;-71
2021/03/20 12:14:34;;;;;;;2.93;1.00;;;15.40;34.80;;;;;;4959853;28;20204;-71
2021/03/20 12:17:12;;;;;;;1.90;1.27;;;14.80;34.80;;;;;;4967420;28;20233;-71
2021/03/20 12:20:04;;;;;;;1.90;1.50;;;14.40;35.00;;;;;;4965507;28;20290;-71
2021/03/20 12:22:46;;;;;;;1.30;1.20;;;13.90;35.30;;;;;;4960853;28;20763;-71
2021/03/20 12:25:25;;;;;;;4.10;1.53;;;13.60;35.80;;;;;;4954569;28;20213;-71
2021/03/20 12:27:55;;;;;;;1.80;1.53;;;13.20;35.90;;;;;;4964098;28;20209;-70
2021/03/20 12:30:27;;;;;;;1.37;1.17;;;13.00;36.50;;;;;;4963253;28;20242;-71
2021/03/20 12:32:54;;;;;;;1.73;1.60;;;12.80;37.50;;;;;;4960080;28;20206;-70
2021/03/20 12:35:40;;;;;;;2.57;1.30;;;12.60;37.00;;;;;;4961221;28;20204;-70
2021/03/20 12:38:16;;;;;;;1.80;1.50;;;12.50;37.40;;;;;;4965644;28;20255;-71
2021/03/20 12:40:49;;;;;;;1.43;1.30;;;12.30;37.50;;;;;;4946552;28;20237;-71
2021/03/20 12:43:21;;;;;;;2.20;1.60;;;12.20;38.00;;;;;;4942789;28;20630;-70
2021/03/20 12:45:47;;;;;;;2.53;1.70;;;12.00;38.00;;;;;;4956078;28;20248;-70
2021/03/20 12:48:15;;;;;;;2.40;1.43;;;11.80;38.30;;;;;;4944726;28;20208;-71
2021/03/20 12:50:43;;;;;;;2.20;1.70;;;11.60;38.50;;;;;;4955284;28;20232;-70
2021/03/20 12:53:10;;;;;;;2.13;1.50;;;11.50;38.70;;;;;;4952699;28;20228;-71
2021/03/20 12:55:36;;;;;;;2.67;1.50;;;11.30;38.80;;;;;;4955650;28;20204;-71
2021/03/20 12:58:03;;;;;;;2.33;1.50;;;11.20;38.80;;;;;;4955344;28;20232;-71
2021/03/20 13:00:30;;;;;;;3.90;1.63;;;11.20;39.00;;;;;;4954615;28;20531;-71
2021/03/20 13:02:57;;;;;;;6.03;1.43;;;11.10;39.00;;;;;;4968201;28;20302;-70
2021/03/20 13:05:26;;;;;;;2.27;1.60;;;10.90;39.60;;;;;;4971055;28;20203;-71
2021/03/20 13:07:54;;;;;;;1.73;1.27;;;10.90;39.10;;;;;;4951745;28;20276;-70
2021/03/20 13:10:21;;;;;;;2.80;1.63;;;10.70;39.00;;;;;;4970322;28;20240;-71
2021/03/20 13:12:48;;;;;;;1.90;1.60;;;10.70;38.70;;;;;;4966075;28;20676;-70
2021/03/20 13:15:15;;;;;;;3.30;1.87;;;10.40;38.40;;;;;;4968783;28;20627;-70
2021/03/20 13:17:42;;;;;;;1.83;1.33;;;10.20;38.70;;;;;;4966235;28;20200;-70
2021/03/20 13:20:11;;;;;;;2.20;1.20;;;10.10;39.10;;;;;;4951626;28;20616;-70
2021/03/20 13:22:37;;;;;;;1.30;1.20;;;9.90;40.20;;;;;;4944748;28;20643;-76
2021/03/20 13:25:07;;;;;;;2.27;1.30;;;9.80;40.60;;;;;;4940565;29;20212;-74